Time;durP1;ratioP1;P1;durP2;ratioP2;P2;SDS_P1;SDS_P2;PMS_P1;PMS_P2;Temp;Humidity;BMP_temperature;BMP_pressure;BME280_temperature;BME280_humidity;BME280_pressure;Samples;Min_cycle;Max_cycle;Signal;HPM_P1;HPM_P2
2023/10/19 00:00:48;;;;;;;14.00;12.20;;;;;;;;;;5071738;28;20206;-67
2023/10/19 00:03:16;;;;;;;13.32;11.52;;;;;;;;;;5067478;28;20195;-66
2023/10/19 00:05:42;;;;;;;11.85;10.30;;;;;;;;;;5070883;28;20205;-66
2023/10/19 00:08:15;;;;;;;13.55;11.32;;;;;;;;;;5067494;28;20219;-67
2023/10/19 00:10:43;;;;;;;14.15;12.43;;;;;;;;;;5065421;28;20266;-66
2023/10/19 00:13:12;;;;;;;15.90;11.75;;;;;;;;;;5064696;28;20195;-66
2023/10/19 00:15:41;;;;;;;15.82;13.02;;;;;;;;;;5069769;28;20203;-67
2023/10/19 00:18:23;;;;;;;14.10;11.68;;;;;;;;;;5061562;28;20233;-66
2023/10/19 00:20:54;;;;;;;12.10;10.23;;;;;;;;;;5067860;28;20285;-66
2023/10/19 00:23:28;;;;;;;15.13;12.93;;;;;;;;;;5071183;28;20222;-66
2023/10/19 00:25:55;;;;;;;14.73;12.00;;;;;;;;;;5068736;28;20229;-66
2023/10/19 00:28:25;;;;;;;17.13;11.60;;;;;;;;;;5068132;28;20206;-66
2023/10/19 00:30:53;;;;;;;15.15;11.95;;;;;;;;;;5062334;28;20279;-65
2023/10/19 00:33:21;;;;;;;15.52;12.65;;;;;;;;;;5067139;28;20203;-66
2023/10/19 00:35:57;;;;;;;14.95;12.23;;;;;;;;;;5069288;28;20230;-65
2023/10/19 00:38:40;;;;;;;12.63;10.95;;;;;;;;;;5068693;28;20288;-66
2023/10/19 00:41:11;;;;;;;14.70;11.25;;;;;;;;;;5061750;28;20233;-66
2023/10/19 00:43:44;;;;;;;14.88;12.30;;;;;;;;;;5069358;28;20210;-66
2023/10/19 00:46:15;;;;;;;12.90;10.52;;;;;;;;;;5067961;28;20218;-65
2023/10/19 00:48:45;;;;;;;14.48;11.57;;;;;;;;;;5066404;28;20248;-65
2023/10/19 00:51:26;;;;;;;16.98;13.18;;;;;;;;;;5061642;28;20215;-66
2023/10/19 00:53:54;;;;;;;14.90;11.52;;;;;;;;;;5066981;28;20211;-66
2023/10/19 00:56:23;;;;;;;14.80;12.85;;;;;;;;;;5070019;28;20209;-66
2023/10/19 00:58:56;;;;;;;11.50;10.30;;;;;;;;;;5069186;28;20298;-66
2023/10/19 01:01:25;;;;;;;13.43;11.90;;;;;;;;;;5066776;28;20293;-66
2023/10/19 01:03:56;;;;;;;17.38;12.98;;;;;;;;;;5066367;28;20260;-65
2023/10/19 01:06:23;;;;;;;15.70;12.80;;;;;;;;;;5069753;28;20207;-65
2023/10/19 01:08:51;;;;;;;18.23;12.77;;;;;;;;;;5069781;28;20233;-66
2023/10/19 01:11:21;;;;;;;19.48;14.82;;;;;;;;;;5067458;28;20195;-65
2023/10/19 01:13:48;;;;;;;14.98;12.38;;;;;;;;;;5068713;28;20290;-65
2023/10/19 01:16:20;;;;;;;16.13;12.40;;;;;;;;;;5068847;28;20199;-65
2023/10/19 01:18:48;;;;;;;14.38;11.13;;;;;;;;;;5067377;28;20226;-66
2023/10/19 01:21:18;;;;;;;12.70;10.40;;;;;;;;;;5066843;28;20204;-65
2023/10/19 01:23:49;;;;;;;14.90;9.18;;;;;;;;;;5068151;28;20210;-65
2023/10/19 01:26:22;;;;;;;11.40;9.05;;;;;;;;;;5069600;28;20207;-66
2023/10/19 01:28:51;;;;;;;11.88;8.40;;;;;;;;;;5069739;28;20226;-65
2023/10/19 01:31:30;;;;;;;11.20;8.43;;;;;;;;;;5069159;28;20203;-66
2023/10/19 01:33:58;;;;;;;11.30;7.95;;;;;;;;;;5066896;28;20205;-65
2023/10/19 01:36:26;;;;;;;10.63;7.93;;;;;;;;;;5066230;28;20238;-66
2023/10/19 01:38:55;;;;;;;11.88;7.70;;;;;;;;;;5069915;28;20202;-65
2023/10/19 01:41:22;;;;;;;9.75;6.82;;;;;;;;;;5067979;28;20203;-65
2023/10/19 01:43:49;;;;;;;7.32;6.45;;;;;;;;;;5066268;28;20203;-70
2023/10/19 01:46:21;;;;;;;11.60;6.88;;;;;;;;;;5069259;28;20272;-70
2023/10/19 01:48:49;;;;;;;9.43;6.25;;;;;;;;;;5069036;28;20252;-69
2023/10/19 01:51:16;;;;;;;10.07;6.82;;;;;;;;;;5066716;28;20302;-70
2023/10/19 01:53:44;;;;;;;10.27;6.90;;;;;;;;;;5068975;28;20253;-69
2023/10/19 01:56:12;;;;;;;8.45;6.78;;;;;;;;;;5070046;28;20203;-69
2023/10/19 01:58:40;;;;;;;8.80;7.55;;;;;;;;;;5071166;28;20207;-70
2023/10/19 02:01:08;;;;;;;10.23;7.15;;;;;;;;;;5070374;28;20206;-70
2023/10/19 02:03:36;;;;;;;8.85;6.68;;;;;;;;;;5070983;28;20222;-70
2023/10/19 02:06:10;;;;;;;10.05;7.43;;;;;;;;;;5065893;28;20264;-69
2023/10/19 02:08:39;;;;;;;10.98;6.90;;;;;;;;;;5070901;28;20211;-69
2023/10/19 02:11:16;;;;;;;10.50;7.40;;;;;;;;;;5072022;28;20272;-70
2023/10/19 02:13:46;;;;;;;12.38;7.45;;;;;;;;;;5072556;28;20190;-69
2023/10/19 02:16:12;;;;;;;8.48;6.82;;;;;;;;;;5065451;28;20199;-70
2023/10/19 02:18:40;;;;;;;12.68;7.03;;;;;;;;;;5073213;28;20206;-70
2023/10/19 02:21:06;;;;;;;9.38;7.03;;;;;;;;;;5068528;28;20249;-70
2023/10/19 02:23:34;;;;;;;8.57;6.22;;;;;;;;;;5072536;28;20223;-70
2023/10/19 02:26:02;;;;;;;7.93;6.53;;;;;;;;;;5064126;28;20199;-69
2023/10/19 02:28:31;;;;;;;9.32;6.15;;;;;;;;;;5069358;28;20212;-69
2023/10/19 02:31:11;;;;;;;7.13;5.22;;;;;;;;;;5069886;28;20230;-69
2023/10/19 02:33:37;;;;;;;10.77;5.45;;;;;;;;;;5070165;28;20197;-69
2023/10/19 02:36:12;;;;;;;8.27;5.57;;;;;;;;;;5063587;28;20420;-69
2023/10/19 02:38:38;;;;;;;5.95;5.20;;;;;;;;;;5073258;28;20201;-69
2023/10/19 02:41:05;;;;;;;7.50;5.10;;;;;;;;;;5071178;28;20210;-69
2023/10/19 02:43:32;;;;;;;9.43;4.78;;;;;;;;;;5072428;28;20252;-69
2023/10/19 02:46:02;;;;;;;9.13;4.30;;;;;;;;;;5063849;28;20206;-69
2023/10/19 02:48:28;;;;;;;7.30;3.90;;;;;;;;;;5072564;28;20252;-70
2023/10/19 02:50:55;;;;;;;6.55;3.50;;;;;;;;;;5070848;28;20441;-70
2023/10/19 02:53:22;;;;;;;8.98;3.38;;;;;;;;;;5071190;28;20225;-66
2023/10/19 02:55:51;;;;;;;5.70;3.35;;;;;;;;;;5067965;28;20202;-66
2023/10/19 02:58:18;;;;;;;4.78;3.08;;;;;;;;;;5068730;28;20223;-66
2023/10/19 03:00:45;;;;;;;5.43;2.60;;;;;;;;;;5071048;28;20206;-65
2023/10/19 03:03:17;;;;;;;6.53;2.83;;;;;;;;;;5072616;28;20214;-66
2023/10/19 03:05:43;;;;;;;5.65;2.20;;;;;;;;;;5068912;28;20244;-65
2023/10/19 03:08:11;;;;;;;5.15;2.15;;;;;;;;;;5068103;28;20187;-65
2023/10/19 03:10:41;;;;;;;5.40;2.30;;;;;;;;;;5072317;28;20203;-65
2023/10/19 03:13:09;;;;;;;5.93;2.30;;;;;;;;;;5073465;28;20199;-65
2023/10/19 03:15:35;;;;;;;4.82;2.20;;;;;;;;;;5072839;28;20285;-65
2023/10/19 03:18:04;;;;;;;4.65;2.20;;;;;;;;;;5065463;28;20199;-65
2023/10/19 03:20:33;;;;;;;8.32;2.45;;;;;;;;;;5067372;28;20293;-65
2023/10/19 03:23:01;;;;;;;6.53;2.00;;;;;;;;;;5068900;28;20233;-65
2023/10/19 03:28:16;;;;;;;4.25;1.83;;;;;;;;;;5067672;28;20213;-65
2023/10/19 03:30:43;;;;;;;8.73;1.92;;;;;;;;;;5070326;28;20208;-65
2023/10/19 03:33:12;;;;;;;8.40;2.10;;;;;;;;;;5072481;28;20202;-66
2023/10/19 03:35:42;;;;;;;6.53;1.90;;;;;;;;;;5070697;28;20226;-67
2023/10/19 03:38:14;;;;;;;4.32;1.63;;;;;;;;;;5062237;28;20229;-66
2023/10/19 03:40:46;;;;;;;6.18;2.00;;;;;;;;;;5068166;28;20260;-65
2023/10/19 03:43:18;;;;;;;3.88;2.00;;;;;;;;;;5072377;28;20284;-65
2023/10/19 03:45:50;;;;;;;7.68;1.80;;;;;;;;;;5072292;28;20260;-65
2023/10/19 03:48:17;;;;;;;5.25;1.80;;;;;;;;;;5065880;28;20233;-65
2023/10/19 03:50:48;;;;;;;4.90;2.25;;;;;;;;;;5071631;28;20252;-65
2023/10/19 03:53:15;;;;;;;7.43;2.00;;;;;;;;;;5071100;28;20210;-65
2023/10/19 03:55:44;;;;;;;5.05;2.15;;;;;;;;;;5071186;28;20234;-65
2023/10/19 03:58:11;;;;;;;3.47;1.83;;;;;;;;;;5066244;28;20195;-65
2023/10/19 04:00:39;;;;;;;7.90;2.03;;;;;;;;;;5068350;28;20198;-65
2023/10/19 04:03:07;;;;;;;3.58;1.77;;;;;;;;;;5071328;28;20229;-65
2023/10/19 04:05:38;;;;;;;5.40;1.80;;;;;;;;;;5072231;28;20266;-69
2023/10/19 04:08:12;;;;;;;6.20;2.08;;;;;;;;;;5061282;28;20219;-68
2023/10/19 04:10:44;;;;;;;7.28;1.63;;;;;;;;;;5071396;28;20206;-68
2023/10/19 04:13:12;;;;;;;7.88;1.80;;;;;;;;;;5071462;28;20203;-68
2023/10/19 04:15:39;;;;;;;6.53;2.03;;;;;;;;;;5068057;28;20207;-69
2023/10/19 04:18:09;;;;;;;6.28;1.83;;;;;;;;;;5063017;28;20199;-68
2023/10/19 04:20:54;;;;;;;8.57;2.33;;;;;;;;;;5070831;28;20206;-69
2023/10/19 04:23:26;;;;;;;7.15;2.00;;;;;;;;;;5065149;28;20215;-69
2023/10/19 04:25:56;;;;;;;7.00;2.17;;;;;;;;;;5069652;28;20285;-69
2023/10/19 04:28:30;;;;;;;7.97;1.98;;;;;;;;;;5064819;28;20821;-70
2023/10/19 04:31:02;;;;;;;5.28;1.90;;;;;;;;;;5069304;28;20304;-70
2023/10/19 04:33:29;;;;;;;4.50;1.83;;;;;;;;;;5067081;28;20238;-70
2023/10/19 04:35:59;;;;;;;5.95;1.92;;;;;;;;;;5070094;28;20226;-70
2023/10/19 04:38:30;;;;;;;7.38;1.75;;;;;;;;;;5064209;28;20210;-69
2023/10/19 04:41:07;;;;;;;8.27;1.70;;;;;;;;;;5064842;28;20205;-70
2023/10/19 04:43:34;;;;;;;7.45;1.98;;;;;;;;;;5069837;28;20222;-70
2023/10/19 04:46:07;;;;;;;5.57;1.83;;;;;;;;;;5069961;28;20207;-70
2023/10/19 04:48:35;;;;;;;5.57;1.40;;;;;;;;;;5064142;28;20230;-70
2023/10/19 04:51:03;;;;;;;4.72;1.58;;;;;;;;;;5063648;28;20207;-71
2023/10/19 04:53:32;;;;;;;8.88;1.83;;;;;;;;;;5066444;28;20209;-69
2023/10/19 04:56:00;;;;;;;7.40;1.98;;;;;;;;;;5069247;28;20202;-70
2023/10/19 04:58:28;;;;;;;8.38;1.80;;;;;;;;;;5069036;28;20256;-69
2023/10/19 05:00:55;;;;;;;9.70;1.95;;;;;;;;;;5057749;28;20211;-69
2023/10/19 05:03:23;;;;;;;6.35;1.77;;;;;;;;;;5070549;28;20230;-70
2023/10/19 05:05:51;;;;;;;7.82;1.90;;;;;;;;;;5068552;28;20248;-69
2023/10/19 05:08:18;;;;;;;6.55;1.85;;;;;;;;;;5068643;28;20202;-70
2023/10/19 05:10:48;;;;;;;5.43;1.80;;;;;;;;;;5059196;28;20199;-69
2023/10/19 05:13:15;;;;;;;7.90;2.05;;;;;;;;;;5067281;28;20203;-69
2023/10/19 05:15:43;;;;;;;6.05;2.20;;;;;;;;;;5068141;28;20215;-66
2023/10/19 05:18:12;;;;;;;6.82;1.63;;;;;;;;;;5059759;28;20203;-66
2023/10/19 05:20:40;;;;;;;4.72;1.70;;;;;;;;;;5069729;28;20213;-66
2023/10/19 05:23:08;;;;;;;7.90;2.22;;;;;;;;;;5069356;28;20207;-65
2023/10/19 05:25:36;;;;;;;6.28;2.00;;;;;;;;;;5070746;28;20202;-65
2023/10/19 05:28:04;;;;;;;4.38;1.42;;;;;;;;;;5063013;28;20199;-66
2023/10/19 05:30:32;;;;;;;8.18;1.67;;;;;;;;;;5071268;28;20203;-66
2023/10/19 05:33:01;;;;;;;7.47;1.65;;;;;;;;;;5068864;28;20215;-66
2023/10/19 05:35:29;;;;;;;6.80;2.00;;;;;;;;;;5067513;28;20223;-66
2023/10/19 05:37:57;;;;;;;7.13;1.83;;;;;;;;;;5065183;28;20231;-66
2023/10/19 05:40:29;;;;;;;5.75;1.65;;;;;;;;;;5066379;28;20207;-66
2023/10/19 05:42:56;;;;;;;6.30;1.58;;;;;;;;;;5067211;28;20208;-66
2023/10/19 05:45:26;;;;;;;5.07;1.50;;;;;;;;;;5069940;28;20198;-67
2023/10/19 05:47:53;;;;;;;6.45;2.15;;;;;;;;;;5065478;28;20211;-66
2023/10/19 05:50:20;;;;;;;6.35;1.75;;;;;;;;;;5065748;28;20203;-66
2023/10/19 05:52:48;;;;;;;8.38;2.05;;;;;;;;;;5067781;28;20348;-66
2023/10/19 05:55:16;;;;;;;8.88;1.95;;;;;;;;;;5069586;28;20195;-66
2023/10/19 05:57:44;;;;;;;6.30;1.83;;;;;;;;;;5069406;28;20211;-66
2023/10/19 06:00:13;;;;;;;6.72;1.95;;;;;;;;;;5060420;28;20199;-65
2023/10/19 06:02:44;;;;;;;7.13;1.80;;;;;;;;;;5066125;28;20289;-66
2023/10/19 06:05:11;;;;;;;8.27;1.90;;;;;;;;;;5067276;28;20199;-66
2023/10/19 06:07:39;;;;;;;5.03;1.88;;;;;;;;;;5067518;28;20216;-66
2023/10/19 06:10:06;;;;;;;5.72;2.40;;;;;;;;;;5063148;28;20327;-66
2023/10/19 06:12:34;;;;;;;7.15;2.00;;;;;;;;;;5063503;28;20249;-66
2023/10/19 06:15:03;;;;;;;7.13;1.70;;;;;;;;;;5061454;28;20289;-66
2023/10/19 06:17:30;;;;;;;7.05;2.15;;;;;;;;;;5061675;28;20203;-67
2023/10/19 06:19:59;;;;;;;6.03;1.63;;;;;;;;;;5062647;28;20209;-66
2023/10/19 06:22:28;;;;;;;6.80;2.55;;;;;;;;;;5061313;28;20277;-66
2023/10/19 06:24:55;;;;;;;5.70;1.70;;;;;;;;;;5065687;28;20219;-66
2023/10/19 06:27:23;;;;;;;4.53;1.50;;;;;;;;;;5063685;28;20629;-66
2023/10/19 06:29:50;;;;;;;6.80;2.05;;;;;;;;;;5063695;28;20265;-66
2023/10/19 06:32:17;;;;;;;5.75;1.63;;;;;;;;;;5061805;28;20211;-66
2023/10/19 06:34:44;;;;;;;7.28;2.10;;;;;;;;;;5062075;28;20331;-66
2023/10/19 06:37:13;;;;;;;7.00;1.90;;;;;;;;;;5064019;28;20230;-66
2023/10/19 06:39:41;;;;;;;7.30;2.10;;;;;;;;;;5070594;28;20203;-65
2023/10/19 06:42:14;;;;;;;6.47;1.90;;;;;;;;;;5067071;28;20202;-65
2023/10/19 06:44:43;;;;;;;6.82;2.15;;;;;;;;;;5073909;28;20229;-65
2023/10/19 06:47:10;;;;;;;6.47;1.60;;;;;;;;;;5072848;28;20221;-65
2023/10/19 06:49:37;;;;;;;6.20;1.60;;;;;;;;;;5072444;28;20270;-65
2023/10/19 06:52:05;;;;;;;5.03;1.60;;;;;;;;;;5067176;28;20266;-66
2023/10/19 06:54:34;;;;;;;5.15;1.80;;;;;;;;;;5068202;28;20191;-65
2023/10/19 06:57:02;;;;;;;7.70;1.63;;;;;;;;;;5073081;28;20217;-66
2023/10/19 06:59:33;;;;;;;6.00;1.92;;;;;;;;;;5069553;28;20211;-66
2023/10/19 07:02:01;;;;;;;6.57;2.00;;;;;;;;;;5066439;28;20209;-65
2023/10/19 07:04:28;;;;;;;6.53;2.03;;;;;;;;;;5065821;28;20249;-66
2023/10/19 07:06:56;;;;;;;6.72;2.08;;;;;;;;;;5071410;28;20198;-66
2023/10/19 07:09:23;;;;;;;6.65;2.17;;;;;;;;;;5063142;28;20212;-65
2023/10/19 07:11:54;;;;;;;9.27;2.10;;;;;;;;;;5064003;28;20202;-65
2023/10/19 07:14:23;;;;;;;5.60;2.00;;;;;;;;;;5068496;28;20206;-65
2023/10/19 07:16:51;;;;;;;5.28;2.30;;;;;;;;;;5067628;28;20206;-65
2023/10/19 07:19:19;;;;;;;6.40;2.00;;;;;;;;;;5070154;28;20250;-65
2023/10/19 07:21:48;;;;;;;7.38;2.17;;;;;;;;;;5069606;28;20202;-65
2023/10/19 07:24:18;;;;;;;6.05;1.80;;;;;;;;;;5066566;28;20253;-65
2023/10/19 07:26:53;;;;;;;7.70;2.03;;;;;;;;;;5069853;28;20293;-65
2023/10/19 07:29:21;;;;;;;9.63;1.95;;;;;;;;;;5070070;28;20232;-65
2023/10/19 07:31:51;;;;;;;9.68;2.00;;;;;;;;;;5067108;28;20197;-65
2023/10/19 07:34:25;;;;;;;4.68;1.90;;;;;;;;;;5064890;28;20214;-68
2023/10/19 07:36:54;;;;;;;6.18;1.83;;;;;;;;;;5067746;28;20241;-69
2023/10/19 07:39:22;;;;;;;6.65;1.98;;;;;;;;;;5065780;28;20211;-69
2023/10/19 07:41:50;;;;;;;3.83;1.67;;;;;;;;;;5062707;28;20207;-68
2023/10/19 07:44:18;;;;;;;10.43;2.10;;;;;;;;;;5062182;28;20346;-68
2023/10/19 07:46:46;;;;;;;5.68;1.70;;;;;;;;;;5063698;28;20213;-68
2023/10/19 07:49:14;;;;;;;6.68;1.75;;;;;;;;;;5065331;28;20213;-68
2023/10/19 07:51:42;;;;;;;2.67;1.27;;;;;;;;;;5066674;28;20199;-68
2023/10/19 07:54:10;;;;;;;4.60;1.98;;;;;;;;;;5066093;28;20195;-68
2023/10/19 07:56:37;;;;;;;7.00;1.60;;;;;;;;;;5067934;28;20225;-68
2023/10/19 07:59:04;;;;;;;5.18;1.67;;;;;;;;;;5066413;28;20344;-68
2023/10/19 08:01:32;;;;;;;4.78;1.58;;;;;;;;;;5059668;28;20203;-69
2023/10/19 08:04:00;;;;;;;3.78;1.60;;;;;;;;;;5056581;28;22359;-68
2023/10/19 08:06:28;;;;;;;3.53;1.58;;;;;;;;;;5067843;28;20216;-68
2023/10/19 08:08:56;;;;;;;5.80;2.00;;;;;;;;;;5065989;28;20298;-68
2023/10/19 08:11:23;;;;;;;6.32;1.92;;;;;;;;;;5067305;28;20215;-69
2023/10/19 08:13:50;;;;;;;6.47;1.75;;;;;;;;;;5063939;28;20202;-68
2023/10/19 08:16:18;;;;;;;3.95;1.42;;;;;;;;;;5055743;28;20207;-68
2023/10/19 08:18:45;;;;;;;6.20;1.80;;;;;;;;;;5062101;28;20515;-68
2023/10/19 08:21:13;;;;;;;4.20;1.60;;;;;;;;;;5068100;28;20205;-68
2023/10/19 08:23:42;;;;;;;5.40;2.15;;;;;;;;;;5068074;28;20237;-68
2023/10/19 08:26:09;;;;;;;3.92;1.70;;;;;;;;;;5059648;28;20239;-68
2023/10/19 08:28:36;;;;;;;7.90;3.17;;;;;;;;;;5062491;28;20256;-68
2023/10/19 08:31:05;;;;;;;4.47;1.60;;;;;;;;;;5061158;28;20203;-68
2023/10/19 08:33:33;;;;;;;3.63;1.55;;;;;;;;;;5060273;28;20207;-68
2023/10/19 08:36:01;;;;;;;18.80;3.10;;;;;;;;;;5066311;28;20238;-68
2023/10/19 08:38:29;;;;;;;12.52;2.80;;;;;;;;;;5056541;28;20211;-67
2023/10/19 08:40:56;;;;;;;11.73;2.20;;;;;;;;;;5065885;28;20211;-68
2023/10/19 08:43:24;;;;;;;4.63;1.80;;;;;;;;;;5066155;28;20203;-67
2023/10/19 08:45:51;;;;;;;7.30;2.08;;;;;;;;;;5061913;28;20207;-64
2023/10/19 08:48:18;;;;;;;6.90;1.75;;;;;;;;;;5062493;28;20297;-64
2023/10/19 08:50:47;;;;;;;4.53;1.95;;;;;;;;;;5069247;28;20213;-65
2023/10/19 08:53:15;;;;;;;5.07;1.83;;;;;;;;;;5070784;28;20213;-64
2023/10/19 08:55:43;;;;;;;5.45;1.70;;;;;;;;;;5065150;28;20321;-65
2023/10/19 08:58:10;;;;;;;4.97;2.05;;;;;;;;;;5057624;28;20203;-65
2023/10/19 09:00:46;;;;;;;9.88;1.92;;;;;;;;;;5065818;28;20248;-64
2023/10/19 09:03:14;;;;;;;6.13;1.98;;;;;;;;;;5068115;28;20198;-64
2023/10/19 09:05:41;;;;;;;4.50;2.05;;;;;;;;;;5066586;28;20245;-65
2023/10/19 09:08:09;;;;;;;7.90;1.85;;;;;;;;;;5060595;28;20236;-64
2023/10/19 09:10:37;;;;;;;6.10;2.05;;;;;;;;;;5064706;28;20204;-64
2023/10/19 09:13:08;;;;;;;4.43;1.80;;;;;;;;;;5070373;28;20207;-64
2023/10/19 09:15:36;;;;;;;6.50;1.80;;;;;;;;;;5070635;28;20199;-64
2023/10/19 09:18:14;;;;;;;6.95;1.60;;;;;;;;;;5059233;28;20206;-65
2023/10/19 09:20:42;;;;;;;3.97;1.77;;;;;;;;;;5061348;28;20198;-64
2023/10/19 09:23:09;;;;;;;5.18;1.80;;;;;;;;;;5064110;28;20462;-66
2023/10/19 09:25:39;;;;;;;6.32;1.90;;;;;;;;;;5068482;28;20226;-64
2023/10/19 09:28:10;;;;;;;6.18;1.95;;;;;;;;;;5060426;28;20199;-64
2023/10/19 09:30:38;;;;;;;3.55;2.00;;;;;;;;;;5066211;28;20464;-65
2023/10/19 09:33:06;;;;;;;5.15;1.75;;;;;;;;;;5066559;28;20205;-64
2023/10/19 09:35:34;;;;;;;4.88;1.98;;;;;;;;;;5065228;28;20241;-65
2023/10/19 09:38:04;;;;;;;4.82;1.88;;;;;;;;;;5065287;28;20205;-65
2023/10/19 09:40:33;;;;;;;3.35;1.90;;;;;;;;;;5055854;28;20238;-65
2023/10/19 09:43:06;;;;;;;4.80;1.70;;;;;;;;;;5063526;28;20203;-65
2023/10/19 09:45:37;;;;;;;3.25;1.60;;;;;;;;;;5062457;28;20227;-66
2023/10/19 09:48:08;;;;;;;3.33;1.65;;;;;;;;;;5068932;28;20207;-66
2023/10/19 09:50:35;;;;;;;4.78;2.13;;;;;;;;;;5059508;28;20215;-65
2023/10/19 09:53:04;;;;;;;2.83;1.40;;;;;;;;;;5061575;28;20195;-66
2023/10/19 09:55:33;;;;;;;2.75;1.33;;;;;;;;;;5069371;28;20202;-65
2023/10/19 09:58:04;;;;;;;3.42;1.52;;;;;;;;;;5066575;28;20217;-65
2023/10/19 10:00:35;;;;;;;4.18;1.52;;;;;;;;;;5066561;28;20203;-65
2023/10/19 10:03:05;;;;;;;4.15;1.65;;;;;;;;;;5059080;28;20245;-66
2023/10/19 10:05:51;;;;;;;4.65;2.00;;;;;;;;;;5068319;28;20230;-66
2023/10/19 10:08:34;;;;;;;2.90;1.60;;;;;;;;;;5069797;28;20202;-65
2023/10/19 10:11:14;;;;;;;3.97;1.90;;;;;;;;;;5068804;28;20202;-65
2023/10/19 10:13:42;;;;;;;4.22;1.92;;;;;;;;;;5064198;28;20220;-65
2023/10/19 10:16:09;;;;;;;3.83;1.90;;;;;;;;;;5071652;28;20289;-65
2023/10/19 10:18:38;;;;;;;4.13;1.85;;;;;;;;;;5071051;28;20199;-65
2023/10/19 10:21:09;;;;;;;3.97;2.13;;;;;;;;;;5072802;28;20203;-65
2023/10/19 10:23:42;;;;;;;3.70;2.15;;;;;;;;;;5064316;28;20195;-65
2023/10/19 10:26:09;;;;;;;3.58;2.10;;;;;;;;;;5073945;28;20244;-66
2023/10/19 10:28:36;;;;;;;4.85;2.53;;;;;;;;;;5067901;28;20203;-65
2023/10/19 10:31:13;;;;;;;3.28;2.40;;;;;;;;;;5072121;28;20203;-65
2023/10/19 10:33:44;;;;;;;3.67;3.08;;;;;;;;;;5066445;28;20206;-67
2023/10/19 10:36:12;;;;;;;3.85;2.65;;;;;;;;;;5069543;28;20229;-65
2023/10/19 10:38:40;;;;;;;4.70;2.80;;;;;;;;;;5072769;28;20310;-65
2023/10/19 10:41:09;;;;;;;5.28;3.20;;;;;;;;;;5072730;28;20230;-65
2023/10/19 10:43:49;;;;;;;3.50;3.10;;;;;;;;;;5067257;28;20245;-65
2023/10/19 10:46:16;;;;;;;3.35;2.90;;;;;;;;;;5069630;28;20210;-65
2023/10/19 10:48:49;;;;;;;4.57;3.33;;;;;;;;;;5072636;28;20206;-65
2023/10/19 10:51:17;;;;;;;4.38;3.13;;;;;;;;;;5071814;28;20205;-65
2023/10/19 10:53:45;;;;;;;3.17;2.67;;;;;;;;;;5068819;28;20301;-66
2023/10/19 10:56:12;;;;;;;6.35;3.13;;;;;;;;;;5072026;28;20227;-65
2023/10/19 10:58:40;;;;;;;4.22;3.22;;;;;;;;;;5067515;28;20198;-65
2023/10/19 11:01:08;;;;;;;5.15;3.00;;;;;;;;;;5069884;28;20211;-65
2023/10/19 11:03:38;;;;;;;3.58;2.80;;;;;;;;;;5066913;28;20211;-69
2023/10/19 11:06:11;;;;;;;4.22;3.20;;;;;;;;;;5064014;28;20233;-69
2023/10/19 11:08:38;;;;;;;7.80;3.45;;;;;;;;;;5066174;28;20209;-69
2023/10/19 11:11:07;;;;;;;4.60;3.40;;;;;;;;;;5067532;28;20209;-69
2023/10/19 11:13:35;;;;;;;4.90;4.38;;;;;;;;;;5067620;28;20206;-69
2023/10/19 11:16:02;;;;;;;5.82;5.25;;;;;;;;;;5059760;28;20227;-69
2023/10/19 11:18:30;;;;;;;6.85;6.22;;;;;;;;;;5069184;28;20217;-69
2023/10/19 11:20:59;;;;;;;7.57;6.90;;;;;;;;;;5073230;28;20201;-69
2023/10/19 11:23:44;;;;;;;7.45;6.75;;;;;;;;;;5070972;28;20234;-69
2023/10/19 11:26:13;;;;;;;8.75;7.88;;;;;;;;;;5059993;28;20231;-69
2023/10/19 11:28:47;;;;;;;8.18;7.47;;;;;;;;;;5071906;28;20210;-69
2023/10/19 11:31:15;;;;;;;8.25;7.55;;;;;;;;;;5071392;28;20211;-69
2023/10/19 11:33:43;;;;;;;11.10;7.45;;;;;;;;;;5070979;28;20230;-71
2023/10/19 11:36:12;;;;;;;8.43;7.53;;;;;;;;;;5064139;28;20242;-71
2023/10/19 11:38:39;;;;;;;7.95;7.20;;;;;;;;;;5072731;28;20238;-70
2023/10/19 11:41:07;;;;;;;7.65;6.95;;;;;;;;;;5073778;28;20211;-70
2023/10/19 11:43:36;;;;;;;8.40;7.70;;;;;;;;;;5071906;28;20238;-70
2023/10/19 11:46:04;;;;;;;9.40;7.45;;;;;;;;;;5063778;28;20226;-70
2023/10/19 11:48:31;;;;;;;8.13;7.32;;;;;;;;;;5070471;28;20205;-70
2023/10/19 11:50:58;;;;;;;7.38;6.70;;;;;;;;;;5070759;28;20203;-70
2023/10/19 11:53:26;;;;;;;6.95;6.32;;;;;;;;;;5071681;28;20207;-70
2023/10/19 11:55:53;;;;;;;7.25;6.13;;;;;;;;;;5069402;28;20205;-70
2023/10/19 11:58:20;;;;;;;6.22;5.63;;;;;;;;;;5061624;28;20203;-70
2023/10/19 12:00:48;;;;;;;6.47;5.70;;;;;;;;;;5065558;28;20298;-70
2023/10/19 12:03:16;;;;;;;7.35;5.20;;;;;;;;;;5062226;28;20210;-70
2023/10/19 12:05:43;;;;;;;5.60;5.20;;;;;;;;;;5059819;28;20221;-70
2023/10/19 12:08:11;;;;;;;7.53;5.15;;;;;;;;;;5063750;28;20229;-70
2023/10/19 12:10:38;;;;;;;6.55;5.57;;;;;;;;;;5068251;28;20198;-72
2023/10/19 12:13:07;;;;;;;8.85;5.18;;;;;;;;;;5062686;28;20230;-71
2023/10/19 12:15:34;;;;;;;6.93;6.18;;;;;;;;;;5068388;28;20195;-68
2023/10/19 12:18:03;;;;;;;5.45;4.88;;;;;;;;;;5064335;28;20195;-68
2023/10/19 12:20:31;;;;;;;5.90;5.05;;;;;;;;;;5070259;28;20205;-68
2023/10/19 12:23:00;;;;;;;7.93;5.72;;;;;;;;;;5066587;28;20203;-67
2023/10/19 12:25:31;;;;;;;5.25;4.63;;;;;;;;;;5065513;28;20222;-66
2023/10/19 12:27:59;;;;;;;7.68;4.63;;;;;;;;;;5069829;28;20228;-67
2023/10/19 12:30:31;;;;;;;4.47;4.07;;;;;;;;;;5069078;28;20203;-67
2023/10/19 12:33:01;;;;;;;5.13;3.95;;;;;;;;;;5067137;28;20227;-66
2023/10/19 12:35:44;;;;;;;8.45;5.05;;;;;;;;;;5063390;28;20237;-66
2023/10/19 12:38:15;;;;;;;6.07;3.97;;;;;;;;;;5067172;28;20221;-64
2023/10/19 12:40:44;;;;;;;4.30;3.70;;;;;;;;;;5072989;28;20226;-65
2023/10/19 12:43:12;;;;;;;6.63;5.03;;;;;;;;;;5058397;28;20211;-65
2023/10/19 12:45:40;;;;;;;5.25;4.50;;;;;;;;;;5067317;28;20226;-65
2023/10/19 12:48:07;;;;;;;3.70;3.33;;;;;;;;;;5070369;28;20229;-64
2023/10/19 12:50:37;;;;;;;3.22;3.03;;;;;;;;;;5064494;28;20640;-64
2023/10/19 12:53:06;;;;;;;2.70;2.50;;;;;;;;;;5056583;28;20277;-65
2023/10/19 12:55:34;;;;;;;4.30;3.90;;;;;;;;;;5062202;28;20206;-65
2023/10/19 12:58:07;;;;;;;4.80;4.40;;;;;;;;;;5057834;28;20232;-67
2023/10/19 13:00:40;;;;;;;5.82;4.22;;;;;;;;;;5067116;28;20205;-66
2023/10/19 13:03:08;;;;;;;3.90;3.55;;;;;;;;;;5062785;28;20203;-65
2023/10/19 13:05:38;;;;;;;5.43;4.90;;;;;;;;;;5071811;28;20275;-65
2023/10/19 13:08:06;;;;;;;5.57;4.20;;;;;;;;;;5066870;28;20213;-65
2023/10/19 13:10:35;;;;;;;4.45;3.55;;;;;;;;;;5065135;28;20210;-64
2023/10/19 13:13:03;;;;;;;4.18;3.75;;;;;;;;;;5063012;28;20290;-65
2023/10/19 13:15:31;;;;;;;3.90;3.15;;;;;;;;;;5065400;28;20297;-65
2023/10/19 13:17:59;;;;;;;3.08;2.88;;;;;;;;;;5062625;28;20214;-64
2023/10/19 13:20:28;;;;;;;2.95;2.65;;;;;;;;;;5059475;28;20215;-65
2023/10/19 13:22:57;;;;;;;2.70;2.50;;;;;;;;;;5063747;28;20214;-64
2023/10/19 13:25:38;;;;;;;3.35;2.67;;;;;;;;;;5062048;28;20223;-65
2023/10/19 13:28:08;;;;;;;2.63;2.42;;;;;;;;;;5063207;28;20199;-65
2023/10/19 13:30:37;;;;;;;3.45;2.70;;;;;;;;;;5062478;28;20260;-65
2023/10/19 13:33:06;;;;;;;2.70;2.50;;;;;;;;;;5062776;28;20217;-64
2023/10/19 13:35:34;;;;;;;3.33;2.38;;;;;;;;;;5065964;28;20226;-65
2023/10/19 13:38:02;;;;;;;4.13;2.65;;;;;;;;;;5066110;28;20207;-64
2023/10/19 13:40:30;;;;;;;3.08;2.30;;;;;;;;;;5063067;28;20265;-64
2023/10/19 13:42:58;;;;;;;2.38;2.17;;;;;;;;;;5069004;28;20228;-64
2023/10/19 13:45:25;;;;;;;2.13;1.98;;;;;;;;;;5063580;28;20222;-65
2023/10/19 13:47:54;;;;;;;2.00;1.90;;;;;;;;;;5069285;28;21244;-64
2023/10/19 13:50:23;;;;;;;2.63;2.20;;;;;;;;;;5070190;28;20210;-64
2023/10/19 13:52:50;;;;;;;2.17;1.98;;;;;;;;;;5064656;28;20195;-64
2023/10/19 13:55:20;;;;;;;1.95;1.70;;;;;;;;;;5065027;28;20229;-65
2023/10/19 13:57:47;;;;;;;2.53;1.88;;;;;;;;;;5067287;28;20199;-64
2023/10/19 14:00:19;;;;;;;1.92;1.75;;;;;;;;;;5067073;28;20194;-64
2023/10/19 14:02:46;;;;;;;2.63;2.00;;;;;;;;;;5062753;28;20244;-64
2023/10/19 14:05:13;;;;;;;1.77;1.60;;;;;;;;;;5061153;28;20259;-66
2023/10/19 14:07:41;;;;;;;1.70;1.60;;;;;;;;;;5065296;28;20197;-64
2023/10/19 14:10:12;;;;;;;1.77;1.67;;;;;;;;;;5065309;28;20213;-65
2023/10/19 14:12:42;;;;;;;1.67;1.58;;;;;;;;;;5061895;28;20283;-64
2023/10/19 14:15:10;;;;;;;3.17;1.75;;;;;;;;;;5064863;28;20280;-65
2023/10/19 14:17:37;;;;;;;2.70;1.85;;;;;;;;;;5067202;28;20450;-64
2023/10/19 14:20:05;;;;;;;2.15;1.60;;;;;;;;;;5067877;28;20266;-64
2023/10/19 14:22:36;;;;;;;2.13;1.55;;;;;;;;;;5068931;28;20225;-64
2023/10/19 14:25:03;;;;;;;1.90;1.73;;;;;;;;;;5062076;28;20306;-64
2023/10/19 14:27:31;;;;;;;1.75;1.30;;;;;;;;;;5067734;28;20226;-64
2023/10/19 14:29:59;;;;;;;1.60;1.50;;;;;;;;;;5065381;28;20206;-64
2023/10/19 14:32:26;;;;;;;1.60;1.40;;;;;;;;;;5063011;28;20213;-64
2023/10/19 14:34:54;;;;;;;1.60;1.50;;;;;;;;;;5068094;28;20207;-64
2023/10/19 14:37:21;;;;;;;1.98;1.58;;;;;;;;;;5065784;28;20374;-64
2023/10/19 14:39:48;;;;;;;1.55;1.45;;;;;;;;;;5063498;28;20268;-63
2023/10/19 14:42:15;;;;;;;1.50;1.40;;;;;;;;;;5063533;28;20207;-64
2023/10/19 14:44:43;;;;;;;1.40;1.30;;;;;;;;;;5063023;28;20208;-64
2023/10/19 14:47:11;;;;;;;2.47;1.40;;;;;;;;;;5065478;28;20222;-64
2023/10/19 14:49:38;;;;;;;1.25;1.15;;;;;;;;;;5061351;28;20213;-64
2023/10/19 14:52:06;;;;;;;1.25;1.15;;;;;;;;;;5068591;28;20199;-64
2023/10/19 14:54:33;;;;;;;1.38;1.27;;;;;;;;;;5064586;28;20207;-65